createdAt,value
2022-10-19T00:00:03.358Z,8.70
2022-10-19T00:03:13.183Z,7.70
2022-10-19T00:06:25.734Z,7.80
2022-10-19T00:09:22.769Z,8.80
2022-10-19T00:12:17.524Z,7.60
2022-10-19T00:15:13.306Z,6.90
2022-10-19T00:18:07.299Z,8.70
2022-10-19T00:21:08.817Z,9.00
2022-10-19T00:24:03.066Z,8.20
2022-10-19T00:26:57.142Z,8.90
2022-10-19T00:29:52.687Z,8.50
2022-10-19T00:32:47.035Z,7.50
2022-10-19T00:35:44.124Z,7.20
2022-10-19T00:38:38.312Z,7.10
2022-10-19T00:41:33.521Z,7.10
2022-10-19T00:45:06.022Z,8.90
2022-10-19T00:48:00.082Z,7.00
2022-10-19T00:50:54.530Z,7.20
2022-10-19T00:53:48.487Z,7.20
2022-10-19T00:56:44.613Z,6.60
2022-10-19T00:59:38.633Z,7.00
2022-10-19T01:02:32.934Z,7.30
2022-10-19T01:05:27.164Z,8.20
2022-10-19T01:08:21.283Z,7.30
2022-10-19T01:11:24.865Z,8.50
2022-10-19T01:14:34.056Z,7.10
2022-10-19T01:17:34.640Z,8.30
2022-10-19T01:21:02.791Z,7.70
2022-10-19T01:24:43.741Z,7.70
2022-10-19T01:27:49.096Z,6.60
2022-10-19T01:30:48.937Z,7.40
2022-10-19T01:33:48.571Z,7.90
2022-10-19T01:36:44.693Z,6.90
2022-10-19T01:42:37.137Z,7.70
2022-10-19T01:45:33.211Z,6.80
2022-10-19T01:51:23.028Z,6.30
2022-10-19T01:54:18.207Z,7.20
2022-10-19T01:57:15.180Z,7.60
2022-10-19T02:00:12.041Z,7.30
2022-10-19T02:03:06.208Z,8.10
2022-10-19T02:06:00.213Z,7.30
2022-10-19T02:08:56.807Z,7.80
2022-10-19T02:11:56.147Z,7.00
2022-10-19T02:14:54.530Z,7.10
2022-10-19T02:17:51.434Z,7.20
2022-10-19T02:20:45.464Z,8.20
2022-10-19T02:23:39.476Z,6.10
2022-10-19T02:26:33.546Z,7.20
2022-10-19T02:29:27.854Z,7.00
2022-10-19T02:32:22.110Z,6.80
2022-10-19T02:35:16.584Z,7.10
2022-10-19T02:38:11.873Z,7.20
2022-10-19T02:41:12.587Z,7.00
2022-10-19T02:44:10.716Z,6.30
2022-10-19T02:47:06.400Z,7.00
2022-10-19T02:50:00.451Z,6.20
2022-10-19T02:52:54.635Z,6.40
2022-10-19T02:55:49.635Z,6.60
2022-10-19T02:58:43.645Z,6.30
2022-10-19T03:01:37.728Z,6.90
2022-10-19T03:04:32.003Z,6.60
2022-10-19T03:07:26.053Z,8.80
2022-10-19T03:10:20.342Z,7.10
2022-10-19T03:13:14.361Z,7.90
2022-10-19T03:16:13.201Z,7.10
2022-10-19T03:19:07.241Z,7.20
2022-10-19T03:22:01.256Z,5.90
2022-10-19T03:24:55.308Z,6.40
2022-10-19T03:27:49.362Z,6.50
2022-10-19T03:30:43.416Z,6.40
2022-10-19T03:33:37.768Z,6.00
2022-10-19T03:36:33.726Z,6.00
2022-10-19T03:39:27.739Z,6.80
2022-10-19T03:42:21.882Z,6.00
2022-10-19T03:45:16.247Z,6.50
2022-10-19T03:48:10.853Z,6.70
2022-10-19T03:51:06.536Z,6.80
2022-10-19T03:54:02.018Z,5.80
2022-10-19T03:56:56.090Z,7.20
2022-10-19T03:59:50.160Z,7.60
2022-10-19T04:02:44.453Z,7.90
2022-10-19T04:05:38.870Z,6.40
2022-10-19T04:08:33.455Z,7.50
2022-10-19T04:11:29.331Z,7.70
2022-10-19T04:17:31.061Z,6.90
2022-10-19T04:20:25.171Z,5.50
2022-10-19T04:23:19.563Z,6.30
2022-10-19T04:26:13.829Z,6.00
2022-10-19T04:29:08.358Z,6.40
2022-10-19T04:32:04.199Z,7.50
2022-10-19T04:34:58.378Z,5.20
2022-10-19T04:37:52.419Z,6.40
2022-10-19T04:40:47.773Z,5.10
2022-10-19T04:43:49.294Z,6.00
2022-10-19T04:46:44.679Z,7.70
2022-10-19T04:49:46.417Z,7.40
2022-10-19T04:52:40.700Z,6.30
2022-10-19T04:55:34.866Z,6.20
2022-10-19T04:58:29.054Z,5.60
2022-10-19T05:01:24.117Z,6.40
2022-10-19T05:04:18.511Z,6.30
2022-10-19T05:07:12.535Z,6.60
2022-10-19T05:10:07.246Z,7.00
2022-10-19T05:13:03.203Z,5.90
2022-10-19T05:16:05.328Z,7.10
2022-10-19T05:18:59.950Z,7.00
2022-10-19T05:21:54.293Z,6.10
2022-10-19T05:24:48.330Z,7.30
2022-10-19T05:27:43.333Z,8.10
2022-10-19T05:30:38.897Z,10.00
2022-10-19T05:33:33.000Z,7.50
2022-10-19T05:36:28.638Z,7.00
2022-10-19T05:39:22.923Z,7.10
2022-10-19T05:42:16.958Z,8.00
2022-10-19T05:45:12.769Z,7.50
2022-10-19T05:48:09.744Z,7.00
2022-10-19T05:51:05.366Z,8.00
2022-10-19T05:53:59.931Z,10.40
2022-10-19T05:56:54.111Z,8.40
2022-10-19T05:59:48.092Z,8.80
2022-10-19T06:02:42.172Z,7.80
2022-10-19T06:05:38.382Z,7.60
2022-10-19T06:11:26.511Z,8.80
2022-10-19T06:14:20.845Z,8.40
2022-10-19T06:17:16.404Z,7.90
2022-10-19T06:20:13.514Z,7.90
2022-10-19T06:23:08.003Z,7.60
2022-10-19T06:26:03.161Z,8.60
2022-10-19T06:29:00.807Z,9.50
2022-10-19T06:31:56.332Z,7.90
2022-10-19T06:34:53.040Z,9.60
2022-10-19T06:37:50.361Z,9.50
2022-10-19T06:40:44.594Z,12.00
2022-10-19T06:43:38.782Z,10.50
2022-10-19T06:46:34.105Z,11.60
2022-10-19T06:49:28.577Z,12.10
2022-10-19T06:52:22.721Z,9.00
2022-10-19T06:55:18.148Z,9.80
2022-10-19T06:58:12.406Z,10.80
2022-10-19T07:01:07.766Z,10.10
2022-10-19T07:04:02.796Z,7.90
2022-10-19T07:06:56.968Z,7.80
2022-10-19T07:09:53.654Z,8.80
2022-10-19T07:12:47.802Z,8.90
2022-10-19T07:15:42.777Z,10.60
2022-10-19T07:18:37.515Z,10.70
2022-10-19T07:21:32.229Z,8.30
2022-10-19T07:24:26.882Z,8.20
2022-10-19T07:27:20.988Z,8.50
2022-10-19T07:30:15.629Z,9.00
2022-10-19T07:33:09.686Z,8.80
2022-10-19T07:36:05.879Z,8.30
2022-10-19T07:39:00.015Z,8.10
2022-10-19T07:41:54.291Z,8.00
2022-10-19T07:44:48.470Z,8.60
2022-10-19T07:47:42.666Z,11.10
2022-10-19T07:50:36.921Z,7.90
2022-10-19T07:53:31.461Z,8.90
2022-10-19T07:56:27.433Z,9.10
2022-10-19T07:59:21.599Z,8.20
2022-10-19T08:02:18.321Z,7.50
2022-10-19T08:05:13.463Z,9.80
2022-10-19T08:08:08.142Z,11.10
2022-10-19T08:11:09.470Z,9.40
2022-10-19T08:14:04.048Z,9.30
2022-10-19T08:16:58.544Z,9.00
2022-10-19T08:19:52.759Z,8.20
2022-10-19T08:22:46.977Z,9.30
2022-10-19T08:25:41.331Z,9.10
2022-10-19T08:28:35.503Z,7.40
2022-10-19T08:31:29.655Z,8.10
2022-10-19T08:34:23.901Z,8.30
2022-10-19T08:37:26.291Z,8.10
2022-10-19T08:40:30.450Z,7.50
2022-10-19T08:43:28.223Z,9.00
2022-10-19T08:46:24.932Z,7.60
2022-10-19T08:49:22.698Z,8.50
2022-10-19T08:52:19.796Z,9.60
2022-10-19T08:55:19.664Z,8.20
2022-10-19T08:58:29.885Z,8.20
2022-10-19T09:01:37.587Z,8.40
2022-10-19T09:04:34.114Z,9.10
2022-10-19T09:07:32.602Z,7.90
2022-10-19T09:10:28.414Z,8.20
2022-10-19T09:13:36.451Z,7.90
2022-10-19T09:16:42.894Z,8.00
2022-10-19T09:19:37.010Z,8.40
2022-10-19T09:22:34.518Z,8.00
2022-10-19T09:25:29.516Z,7.20
2022-10-19T09:28:44.560Z,7.60
2022-10-19T09:31:40.935Z,7.50
2022-10-19T09:34:37.811Z,8.40
2022-10-19T09:37:32.459Z,8.30
2022-10-19T09:40:29.103Z,8.10
2022-10-19T09:43:23.946Z,7.20
2022-10-19T09:46:26.234Z,7.60
2022-10-19T09:49:20.755Z,6.70
2022-10-19T09:52:38.186Z,7.30
2022-10-19T09:55:38.864Z,7.50
2022-10-19T09:58:33.685Z,7.30
2022-10-19T10:01:41.457Z,7.80
2022-10-19T10:04:37.257Z,8.10
2022-10-19T10:07:36.975Z,6.30
2022-10-19T10:10:34.712Z,9.40
2022-10-19T10:13:30.030Z,7.80
2022-10-19T10:16:24.952Z,6.60
2022-10-19T10:19:21.488Z,7.60
2022-10-19T10:22:27.063Z,7.40
2022-10-19T10:25:22.372Z,6.70
2022-10-19T10:28:24.462Z,8.00
2022-10-19T10:31:18.854Z,7.90
2022-10-19T10:34:23.149Z,6.70
2022-10-19T10:37:35.269Z,6.50
2022-10-19T10:40:32.237Z,7.50
2022-10-19T10:43:30.675Z,6.80
2022-10-19T10:46:27.624Z,8.90
2022-10-19T10:49:26.096Z,7.10
2022-10-19T10:52:21.356Z,7.70
2022-10-19T10:55:21.199Z,8.40
2022-10-19T10:58:19.561Z,7.80
2022-10-19T11:01:19.768Z,7.30
2022-10-19T11:04:16.790Z,6.60
2022-10-19T11:07:18.388Z,7.30
2022-10-19T11:10:21.842Z,6.00
2022-10-19T11:13:19.378Z,6.40
2022-10-19T11:16:18.195Z,6.50
2022-10-19T11:19:18.875Z,5.80
2022-10-19T11:22:26.377Z,6.70
2022-10-19T11:25:34.220Z,6.50
2022-10-19T11:28:41.405Z,8.40
2022-10-19T11:31:44.608Z,9.70
2022-10-19T11:34:50.003Z,10.90
2022-10-19T11:38:17.434Z,8.10
2022-10-19T11:41:18.542Z,14.70
2022-10-19T11:44:36.742Z,13.20
2022-10-19T11:47:59.916Z,12.30
2022-10-19T11:50:58.968Z,15.90
2022-10-19T11:54:16.693Z,10.10
2022-10-19T11:57:18.428Z,8.20
2022-10-19T12:00:37.606Z,7.80
2022-10-19T12:03:58.528Z,8.20
2022-10-19T12:07:00.032Z,12.20
2022-10-19T12:09:59.316Z,8.40
2022-10-19T12:12:54.014Z,8.10
2022-10-19T12:15:49.717Z,9.40
2022-10-19T12:18:46.157Z,7.10
2022-10-19T12:21:45.655Z,6.10
2022-10-19T12:24:42.303Z,8.30
2022-10-19T12:27:38.684Z,9.00
2022-10-19T12:30:33.086Z,11.70
2022-10-19T12:33:30.805Z,22.30
2022-10-19T12:36:30.557Z,17.10
2022-10-19T12:39:31.762Z,18.60
2022-10-19T12:42:29.468Z,23.80
2022-10-19T12:45:36.180Z,20.70
2022-10-19T12:48:39.584Z,13.70
2022-10-19T12:51:56.482Z,16.80
2022-10-19T12:55:05.902Z,14.40
2022-10-19T12:58:36.729Z,14.10
2022-10-19T13:01:44.734Z,13.50
2022-10-19T13:04:44.295Z,12.00
2022-10-19T13:07:58.720Z,14.60
2022-10-19T13:16:35.296Z,9.90
2022-10-19T13:20:51.203Z,7.00
2022-10-19T13:24:00.967Z,7.50
2022-10-19T13:27:49.290Z,6.80
2022-10-19T13:31:16.618Z,6.30
2022-10-19T13:37:14.237Z,9.10
2022-10-19T13:40:24.814Z,8.40
2022-10-19T13:43:23.441Z,7.80
2022-10-19T13:46:19.878Z,8.00
2022-10-19T13:49:45.272Z,7.20
2022-10-19T13:57:06.206Z,6.60
2022-10-19T14:00:14.764Z,6.10
2022-10-19T14:06:28.637Z,5.80
2022-10-19T14:10:00.102Z,4.90
2022-10-19T14:12:54.679Z,5.20
2022-10-19T14:16:01.629Z,6.40
2022-10-19T14:19:15.426Z,4.30
2022-10-19T14:22:27.312Z,6.20
2022-10-19T14:25:27.064Z,6.60
2022-10-19T14:28:28.939Z,5.30
2022-10-19T14:31:40.232Z,9.10
2022-10-19T14:34:43.649Z,9.90
2022-10-19T14:37:38.521Z,9.30
2022-10-19T14:40:34.702Z,4.70
2022-10-19T14:43:30.057Z,7.70
2022-10-19T14:46:26.278Z,6.30
2022-10-19T14:52:14.715Z,5.10
2022-10-19T14:55:17.630Z,7.40
2022-10-19T14:58:16.817Z,6.00
2022-10-19T15:01:11.040Z,6.80
2022-10-19T15:04:05.347Z,5.90
2022-10-19T15:06:59.754Z,5.40
2022-10-19T15:09:58.131Z,3.70
2022-10-19T15:12:52.802Z,6.00
2022-10-19T15:15:47.339Z,5.00
2022-10-19T15:18:49.494Z,6.50
2022-10-19T15:21:44.395Z,6.10
2022-10-19T15:24:40.475Z,6.00
2022-10-19T15:30:34.912Z,4.70
2022-10-19T15:33:29.761Z,4.80
2022-10-19T15:36:27.635Z,4.30
2022-10-19T15:39:37.044Z,4.80
2022-10-19T15:42:41.022Z,4.70
2022-10-19T15:45:37.951Z,5.10
2022-10-19T15:48:50.026Z,3.90
2022-10-19T15:51:49.400Z,4.10
2022-10-19T15:54:44.012Z,4.90
2022-10-19T15:57:39.518Z,4.80
2022-10-19T16:00:34.672Z,4.60
2022-10-19T16:03:29.007Z,4.30
2022-10-19T16:06:24.859Z,4.50
2022-10-19T16:09:22.133Z,5.40
2022-10-19T16:12:16.694Z,5.30
2022-10-19T16:15:16.632Z,4.00
2022-10-19T16:18:12.582Z,4.40
2022-10-19T16:21:07.153Z,6.10
2022-10-19T16:24:02.848Z,5.90
2022-10-19T16:26:57.089Z,4.90
2022-10-19T16:29:51.616Z,5.20
2022-10-19T16:32:47.323Z,5.70
2022-10-19T16:35:43.077Z,5.20
2022-10-19T16:38:37.612Z,6.20
2022-10-19T16:41:32.045Z,5.50
2022-10-19T16:44:26.344Z,9.10
2022-10-19T16:47:20.645Z,8.80
2022-10-19T16:50:15.873Z,8.30
2022-10-19T16:53:11.257Z,8.90
2022-10-19T16:56:12.491Z,10.70
2022-10-19T16:59:18.858Z,8.50
2022-10-19T17:02:23.253Z,7.50
2022-10-19T17:05:25.934Z,8.80
2022-10-19T17:09:02.391Z,13.00
2022-10-19T17:11:53.239Z,8.70
2022-10-19T17:14:47.717Z,8.50
2022-10-19T17:17:44.116Z,11.70
2022-10-19T17:20:41.374Z,11.00
2022-10-19T17:23:36.060Z,8.40
2022-10-19T17:26:31.920Z,10.90
2022-10-19T17:29:26.333Z,8.10
2022-10-19T17:32:21.001Z,7.60
2022-10-19T17:35:15.336Z,10.30
2022-10-19T17:38:09.654Z,7.70
2022-10-19T17:41:09.387Z,8.50
2022-10-19T17:44:03.771Z,10.90
2022-10-19T17:46:58.454Z,7.40
2022-10-19T17:49:52.952Z,9.10
2022-10-19T17:52:47.146Z,9.20
2022-10-19T17:55:42.552Z,7.90
2022-10-19T17:58:40.268Z,8.80
2022-10-19T18:01:34.673Z,8.20
2022-10-19T18:04:29.259Z,9.40
2022-10-19T18:07:25.751Z,10.40
2022-10-19T18:10:20.420Z,8.40
2022-10-19T18:13:15.177Z,8.70
2022-10-19T18:16:11.672Z,8.40
2022-10-19T18:19:06.775Z,9.00
2022-10-19T18:22:01.051Z,9.50
2022-10-19T18:24:55.192Z,8.80
2022-10-19T18:27:49.719Z,10.90
2022-10-19T18:30:45.353Z,8.40
2022-10-19T18:33:40.235Z,12.60
2022-10-19T18:36:36.134Z,9.20
2022-10-19T18:39:31.773Z,11.50
2022-10-19T18:42:26.169Z,11.80
2022-10-19T18:45:20.543Z,9.50
2022-10-19T18:48:17.509Z,7.70
2022-10-19T18:51:13.236Z,9.90
2022-10-19T18:54:08.060Z,8.80
2022-10-19T18:57:02.998Z,8.00
2022-10-19T18:59:58.642Z,10.00
2022-10-19T19:02:58.090Z,9.20
2022-10-19T19:05:56.122Z,9.20
2022-10-19T19:08:56.408Z,9.90
2022-10-19T19:11:51.623Z,9.30
2022-10-19T19:14:49.543Z,10.70
2022-10-19T19:17:43.975Z,8.40
2022-10-19T19:20:40.899Z,9.80
2022-10-19T19:23:43.771Z,8.60
2022-10-19T19:26:41.333Z,10.30
2022-10-19T19:29:38.634Z,10.20
2022-10-19T19:32:33.041Z,10.10
2022-10-19T19:35:27.719Z,8.50
2022-10-19T19:38:21.847Z,9.70
2022-10-19T19:41:17.844Z,9.90
2022-10-19T19:44:12.137Z,9.80
2022-10-19T19:47:08.519Z,9.70
2022-10-19T19:50:03.106Z,8.90
2022-10-19T19:52:57.517Z,11.90
2022-10-19T19:55:51.828Z,9.00
2022-10-19T19:58:46.559Z,9.00
2022-10-19T20:01:41.028Z,10.60
2022-10-19T20:04:37.197Z,10.30
2022-10-19T20:07:32.228Z,9.90
2022-10-19T20:10:26.735Z,8.90
2022-10-19T20:13:21.154Z,10.20
2022-10-19T20:16:17.737Z,11.00
2022-10-19T20:19:14.033Z,9.50
2022-10-19T20:22:08.664Z,12.10
2022-10-19T20:25:03.277Z,11.70
2022-10-19T20:27:57.571Z,9.90
2022-10-19T20:31:01.143Z,10.70
2022-10-19T20:34:01.230Z,11.10
2022-10-19T20:36:55.639Z,23.40
2022-10-19T20:39:50.215Z,17.30
2022-10-19T20:42:44.730Z,19.50
2022-10-19T20:45:39.067Z,15.00
2022-10-19T20:48:33.671Z,12.90
2022-10-19T20:51:31.916Z,14.80
2022-10-19T20:54:27.318Z,12.30
2022-10-19T20:57:21.844Z,17.20
2022-10-19T21:00:18.844Z,12.50
2022-10-19T21:03:13.175Z,11.10
2022-10-19T21:06:09.647Z,11.70
2022-10-19T21:09:04.049Z,15.60
2022-10-19T21:11:58.756Z,12.80
2022-10-19T21:14:53.444Z,14.30
2022-10-19T21:17:48.659Z,11.60
2022-10-19T21:20:43.047Z,12.20
2022-10-19T21:23:37.258Z,12.10
2022-10-19T21:26:32.801Z,12.80
2022-10-19T21:29:27.325Z,13.10
2022-10-19T21:32:22.087Z,15.60
2022-10-19T21:35:16.363Z,14.20
2022-10-19T21:38:10.524Z,14.80
2022-10-19T21:41:05.745Z,12.60
2022-10-19T21:44:00.096Z,14.30
2022-10-19T21:46:54.794Z,12.50
2022-10-19T21:49:49.465Z,14.70
2022-10-19T21:52:44.067Z,12.20
2022-10-19T21:55:39.117Z,15.00
2022-10-19T21:58:33.286Z,14.20
2022-10-19T22:01:28.800Z,12.50
2022-10-19T22:08:15.339Z,14.20
2022-10-19T22:11:13.340Z,14.50
2022-10-19T22:14:07.912Z,13.90
2022-10-19T22:17:01.878Z,14.20
2022-10-19T22:19:56.453Z,14.00
2022-10-19T22:22:52.772Z,16.70
2022-10-19T22:25:51.559Z,14.00
2022-10-19T22:28:46.100Z,14.00
2022-10-19T22:31:40.455Z,12.90
2022-10-19T22:34:36.037Z,15.90
2022-10-19T22:37:30.676Z,15.20
2022-10-19T22:40:25.130Z,13.90
2022-10-19T22:43:19.449Z,15.40
2022-10-19T22:46:13.949Z,14.00
2022-10-19T22:52:09.334Z,13.40
2022-10-19T22:55:03.552Z,14.80
2022-10-19T22:57:58.455Z,14.90
2022-10-19T23:01:04.468Z,13.60
2022-10-19T23:03:58.812Z,14.10
2022-10-19T23:06:53.189Z,13.80
2022-10-19T23:09:47.287Z,15.30
2022-10-19T23:12:41.522Z,13.40
2022-10-19T23:15:35.606Z,15.70
2022-10-19T23:18:30.031Z,15.20
2022-10-19T23:21:24.228Z,14.70
2022-10-19T23:24:18.479Z,15.10
2022-10-19T23:27:13.601Z,14.50
2022-10-19T23:30:09.979Z,14.30
2022-10-19T23:33:04.121Z,14.20
2022-10-19T23:36:02.173Z,13.80
2022-10-19T23:38:56.803Z,13.70
2022-10-19T23:41:51.373Z,14.80
2022-10-19T23:44:45.981Z,13.90
2022-10-19T23:47:40.161Z,13.20
2022-10-19T23:50:34.701Z,14.10
2022-10-19T23:53:29.202Z,13.70
2022-10-19T23:56:24.672Z,12.90
2022-10-19T23:59:19.389Z,13.50
